Kerry Airport, Ireland

5:12 AM GMT on January 26, 2015 (GMT +0000)
Farranfore | Change Station
CLOSE
Current Station
Airport
Location: Kerry Airport,
Elevation: 112 ft
Nearby Weather Stations

Elev 112 ft 52.18 °N, 9.52 °W | Updated 9 hours ago

Clear
Clear
43 °F
Feels Like 43 °F
N
13
Wind Variable Wind from WNW
Gusts mph

Today
High -- | Low -- °F
--% Chance of Precip.
Yesterday
High -- | Low -- °F
Precip. -- in
8:27 AM 5:13 PM
Waxing Crescent, 39% visible
Pressure 30.21 in
Visibility 5.6 miles
Clouds Few 1000 ft
Mostly Cloudy 1500 ft
Dew Point 37 °F
Humidity 78%
Rainfall 0.00 in
Snow Depth Not available.
UV 0 out of 12
Pollen Not available.
Air Quality Not available.
Flu Activity Not available.
METAR EIKY 251930Z 24012KT 9000 -RA FEW010 BKN015 10/10 Q1023

More Conditions Fewer Conditions

Pressure 30.21 in
Visibility 5.6 miles
Clouds Few 1000 ft
Mostly Cloudy 1500 ft
Dew Point 37 °F
Humidity 78%
Rainfall 0.00 in
Snow Depth Not available.
UV 0 out of 12
Pollen Not available.
Air Quality Not available.
Flu Activity Not available.
METAR EIKY 251930Z 24012KT 9000 -RA FEW010 BKN015 10/10 Q1023

More Conditions Fewer Conditions

10-Day Weather Forecast

Almanac

Astronomy

Jan. 26, 2015 Rise Set
Actual Time
Civil Twilight
Nautical Twilight
Astronomical Twilight
Moon
Length of Visible Light
Length of Day
Tomorrow will be .
, % of the Moon is Illuminated

Today's Extremes

Country Highs Country Lows

Community

WunderPhotos

Upload Photos

1,790,151 photos uploaded!

WunderBlogs® & News

Nearby

Air Quality

  Air Quality AQ Index Pollutant
Not available.

Snow Depth

Station Depth Elevation

Earthquake Activity

City Distance Mag. Time & Date
Minimum magnitude displayed is 2.5.

Coastal Water Temperatures

Place Temperature

Nearby Weather Stations